Time;durP1;ratioP1;P1;durP2;ratioP2;P2;SDS_P1;SDS_P2;PMS_P1;PMS_P2;Temp;Humidity;BMP_temperature;BMP_pressure;BME280_temperature;BME280_humidity;BME280_pressure;Samples;Min_cycle;Max_cycle;Signal;HPM_P1;HPM_P2
2022/07/23 00:00:20;;;;;;;;;;;;;;;14.09;100.00;99490.31;1701292;84;20161;-81
2022/07/23 00:02:49;;;;;;;;;;;;;;;14.06;100.00;99491.00;1676393;84;20158;-80
2022/07/23 00:05:20;;;;;;;;;;;;;;;14.05;100.00;99485.81;1679656;84;20118;-81
2022/07/23 00:07:55;;;;;;;;;;;;;;;14.04;100.00;99484.20;1679806;84;20102;-81
2022/07/23 00:10:28;;;;;;;;;;;;;;;14.01;100.00;99484.31;1697990;84;20102;-81
2022/07/23 00:12:52;;;;;;;;;;;;;;;13.98;100.00;99484.98;1700906;84;20122;-80
2022/07/23 00:15:27;;;;;;;;;;;;;;;13.95;100.00;99481.52;1701454;84;21318;-81
2022/07/23 00:17:58;;;;;;;;;;;;;;;13.91;100.00;99482.55;1700647;84;20102;-81
2022/07/23 00:20:28;;;;;;;;;;;;;;;13.87;100.00;99486.55;1701453;84;20110;-83
2022/07/23 00:22:59;;;;;;;;;;;;;;;13.85;100.00;99492.44;1701542;84;20541;-79
2022/07/23 00:25:28;;;;;;;;;;;;;;;13.83;100.00;99487.83;1701356;84;20086;-78
2022/07/23 00:27:54;;;;;;;;;;;;;;;13.77;100.00;99482.28;1701684;83;21210;-78
2022/07/23 00:30:29;;;;;;;;;;;;;;;13.73;100.00;99483.30;1680001;84;20101;-79
2022/07/23 00:33:04;;;;;;;;;;;;;;;13.68;100.00;99489.83;1697848;84;20143;-79
2022/07/23 00:35:31;;;;;;;;;;;;;;;13.65;100.00;99484.98;1700898;84;20122;-79
2022/07/23 00:38:04;;;;;;;;;;;;;;;13.58;100.00;99483.34;1675261;85;20074;-78
2022/07/23 00:40:35;;;;;;;;;;;;;;;13.54;100.00;99487.91;1692306;84;20114;-79
2022/07/23 00:43:08;;;;;;;;;;;;;;;13.51;100.00;99487.20;1682671;85;20142;-79
2022/07/23 00:45:34;;;;;;;;;;;;;;;13.49;100.00;99490.87;1681235;85;20115;-79
2022/07/23 00:48:02;;;;;;;;;;;;;;;13.46;100.00;99485.46;1680094;84;20102;-79
2022/07/23 00:50:34;;;;;;;;;;;;;;;13.43;100.00;99486.13;1681759;84;20078;-78
2022/07/23 00:53:04;;;;;;;;;;;;;;;13.42;100.00;99487.84;1693942;84;20098;-79
2022/07/23 00:55:33;;;;;;;;;;;;;;;13.40;100.00;99488.18;1682224;85;20086;-80
2022/07/23 00:58:01;;;;;;;;;;;;;;;13.40;100.00;99488.75;1682747;85;20130;-79
2022/07/23 01:00:29;;;;;;;;;;;;;;;13.40;100.00;99491.52;1682502;84;20126;-79
2022/07/23 01:03:05;;;;;;;;;;;;;;;13.41;100.00;99488.98;1681637;84;20090;-79
2022/07/23 01:05:35;;;;;;;;;;;;;;;13.42;100.00;99494.73;1669619;85;20090;-78
2022/07/23 01:08:03;;;;;;;;;;;;;;;13.41;100.00;99495.88;1682551;84;20142;-78
2022/07/23 01:10:31;;;;;;;;;;;;;;;13.38;100.00;99497.36;1682645;85;20074;-78
2022/07/23 01:13:05;;;;;;;;;;;;;;;13.38;100.00;99497.93;1682145;84;20106;-79
2022/07/23 01:15:36;;;;;;;;;;;;;;;13.35;100.00;99505.49;1682738;85;20126;-77
2022/07/23 01:18:07;;;;;;;;;;;;;;;13.32;100.00;99501.45;1670452;85;20102;-79
2022/07/23 01:20:38;;;;;;;;;;;;;;;13.28;100.00;99510.77;1682711;85;20102;-79
2022/07/23 01:23:06;;;;;;;;;;;;;;;13.25;100.00;99511.42;1682939;85;20166;-78
2022/07/23 01:25:38;;;;;;;;;;;;;;;13.23;100.00;99508.20;1682564;84;20098;-79
2022/07/23 01:28:11;;;;;;;;;;;;;;;13.20;100.00;99511.05;1681690;84;20169;-79
2022/07/23 01:30:43;;;;;;;;;;;;;;;13.19;100.00;99509.44;1682635;85;20102;-81
2022/07/23 01:33:14;;;;;;;;;;;;;;;13.17;100.00;99511.14;1682446;84;20090;-81
2022/07/23 01:35:45;;;;;;;;;;;;;;;13.15;100.00;99512.59;1682673;84;20086;-80
2022/07/23 01:38:20;;;;;;;;;;;;;;;13.15;100.00;99513.97;1653419;84;39113;-83
2022/07/23 01:40:48;;;;;;;;;;;;;;;13.15;100.00;99513.40;1701492;84;20456;-81
2022/07/23 01:43:16;;;;;;;;;;;;;;;13.17;100.00;99515.84;1701206;84;22020;-81
2022/07/23 01:45:48;;;;;;;;;;;;;;;13.17;100.00;99526.88;1701080;84;20074;-80
2022/07/23 01:48:16;;;;;;;;;;;;;;;13.17;100.00;99519.41;1700941;84;20448;-79
2022/07/23 01:50:47;;;;;;;;;;;;;;;13.14;100.00;99524.19;1680239;84;20098;-80
2022/07/23 01:53:26;;;;;;;;;;;;;;;13.10;100.00;99515.53;1662300;84;20429;-79
2022/07/23 01:56:16;;;;;;;;;;;;;;;13.04;100.00;99519.05;1679981;84;20478;-80
2022/07/23 01:58:32;;;;;;;;;;;;;;;12.99;100.00;99516.48;1697909;84;20114;-80
2022/07/23 02:01:03;;;;;;;;;;;;;;;12.95;100.00;99523.80;1698294;84;20090;-80
2022/07/23 02:03:31;;;;;;;;;;;;;;;12.91;100.00;99520.09;1701316;84;20086;-80
2022/07/23 02:06:00;;;;;;;;;;;;;;;12.90;100.00;99520.66;1700822;84;20094;-80
2022/07/23 02:08:39;;;;;;;;;;;;;;;12.91;100.00;99522.84;1701628;84;20090;-80
2022/07/23 02:11:06;;;;;;;;;;;;;;;12.90;100.00;99525.36;1701441;83;20154;-80
2022/07/23 02:13:35;;;;;;;;;;;;;;;12.88;100.00;99526.27;1698056;84;20114;-80
2022/07/23 02:16:12;;;;;;;;;;;;;;;12.84;100.00;99524.73;1701021;84;20122;-80
2022/07/23 02:18:41;;;;;;;;;;;;;;;12.83;100.00;99530.58;1700876;84;20118;-80
2022/07/23 02:21:10;;;;;;;;;;;;;;;12.80;100.00;99530.67;1701288;84;21955;-81
2022/07/23 02:23:39;;;;;;;;;;;;;;;12.79;100.00;99535.13;1701550;84;20137;-81
2022/07/23 02:26:08;;;;;;;;;;;;;;;12.77;100.00;99538.78;1701262;84;20450;-79
2022/07/23 02:28:36;;;;;;;;;;;;;;;12.78;100.00;99534.89;1680862;84;20102;-79
2022/07/23 02:31:09;;;;;;;;;;;;;;;12.74;100.00;99536.13;1680700;84;20090;-79
2022/07/23 02:33:40;;;;;;;;;;;;;;;12.72;100.00;99534.27;1701577;84;21243;-79
2022/07/23 02:36:19;;;;;;;;;;;;;;;12.72;100.00;99538.40;1701119;84;20098;-79
2022/07/23 02:38:38;;;;;;;;;;;;;;;12.73;100.00;99539.20;1697860;84;20110;-79
2022/07/23 02:41:12;;;;;;;;;;;;;;;12.73;100.00;99544.15;1679795;84;20133;-78
2022/07/23 02:43:40;;;;;;;;;;;;;;;12.78;100.00;99543.16;1681632;84;20118;-78
2022/07/23 02:46:07;;;;;;;;;;;;;;;12.79;100.00;99542.02;1700370;84;21166;-78
2022/07/23 02:48:36;;;;;;;;;;;;;;;12.81;100.00;99541.12;1701461;83;20433;-78
2022/07/23 02:51:05;;;;;;;;;;;;;;;12.85;100.00;99540.70;1700962;83;20078;-78
2022/07/23 02:53:37;;;;;;;;;;;;;;;12.86;100.00;99548.63;1681016;84;20114;-78
2022/07/23 02:56:05;;;;;;;;;;;;;;;12.90;100.00;99546.02;1679897;84;20421;-78
2022/07/23 02:58:32;;;;;;;;;;;;;;;12.93;100.00;99548.69;1701496;84;21156;-78
2022/07/23 03:01:03;;;;;;;;;;;;;;;12.96;100.00;99545.27;1697202;84;20102;-80
2022/07/23 03:03:32;;;;;;;;;;;;;;;12.97;100.00;99547.70;1701557;83;20074;-79
2022/07/23 03:06:01;;;;;;;;;;;;;;;13.04;100.00;99545.80;1701429;83;20174;-78
2022/07/23 03:08:35;;;;;;;;;;;;;;;13.10;100.00;99548.03;1701368;83;20097;-78
2022/07/23 03:11:02;;;;;;;;;;;;;;;13.16;100.00;99552.25;1700813;84;21073;-82
2022/07/23 03:13:32;;;;;;;;;;;;;;;13.26;100.00;99555.77;1680257;84;20093;-82
2022/07/23 03:16:06;;;;;;;;;;;;;;;13.36;100.00;99556.73;1700844;83;20094;-79
2022/07/23 03:18:34;;;;;;;;;;;;;;;13.45;100.00;99557.49;1700962;84;20086;-80
2022/07/23 03:21:01;;;;;;;;;;;;;;;13.56;100.00;99557.34;1701596;84;20429;-80
2022/07/23 03:23:31;;;;;;;;;;;;;;;13.67;100.00;99554.42;1701539;83;20507;-77
2022/07/23 03:25:58;;;;;;;;;;;;;;;13.79;100.00;99552.30;1701409;84;20150;-78
2022/07/23 03:28:32;;;;;;;;;;;;;;;13.91;100.00;99557.86;1701516;84;20138;-78
2022/07/23 03:31:05;;;;;;;;;;;;;;;14.00;100.00;99553.08;1701474;84;20461;-79
2022/07/23 03:33:31;;;;;;;;;;;;;;;14.09;100.00;99552.42;1701072;84;20102;-78
2022/07/23 03:36:03;;;;;;;;;;;;;;;14.17;100.00;99549.35;1701065;84;21369;-79
2022/07/23 03:38:34;;;;;;;;;;;;;;;14.26;100.00;99554.22;1701336;84;20098;-83
2022/07/23 03:41:08;;;;;;;;;;;;;;;14.36;100.00;99554.37;1700989;84;20105;-82
2022/07/23 03:43:36;;;;;;;;;;;;;;;14.46;100.00;99559.46;1679734;84;20433;-82
2022/07/23 03:46:17;;;;;;;;;;;;;;;14.58;100.00;99550.40;1701749;83;20086;-80
2022/07/23 03:48:33;;;;;;;;;;;;;;;14.67;100.00;99553.30;1697765;84;21903;-80
2022/07/23 03:51:01;;;;;;;;;;;;;;;14.77;100.00;99556.20;1701519;84;20086;-79
2022/07/23 03:53:32;;;;;;;;;;;;;;;14.89;100.00;99563.12;1701602;84;20129;-80
2022/07/23 03:56:04;;;;;;;;;;;;;;;15.03;100.00;99566.33;1700969;84;20214;-81
2022/07/23 03:58:28;;;;;;;;;;;;;;;15.17;100.00;99563.23;1700979;84;20090;-80
2022/07/23 04:00:58;;;;;;;;;;;;;;;15.28;100.00;99557.47;1701540;84;21123;-80
2022/07/23 04:03:29;;;;;;;;;;;;;;;15.38;100.00;99554.23;1700620;84;21194;-81
2022/07/23 04:05:56;;;;;;;;;;;;;;;15.49;100.00;99558.14;1701702;84;20153;-81
2022/07/23 04:08:25;;;;;;;;;;;;;;;15.59;100.00;99551.94;1680518;84;20197;-81
2022/07/23 04:10:53;;;;;;;;;;;;;;;15.69;100.00;99563.88;1700714;84;20185;-81
2022/07/23 04:13:24;;;;;;;;;;;;;;;15.79;100.00;99557.28;1701193;84;21597;-80
2022/07/23 04:15:53;;;;;;;;;;;;;;;15.89;100.00;99560.14;1695034;84;20098;-79
2022/07/23 04:18:24;;;;;;;;;;;;;;;15.98;100.00;99555.84;1701594;84;20118;-78
2022/07/23 04:20:59;;;;;;;;;;;;;;;16.09;100.00;99555.58;1701391;84;20432;-78
2022/07/23 04:23:30;;;;;;;;;;;;;;;16.19;100.00;99555.05;1700895;84;20114;-78
2022/07/23 04:25:57;;;;;;;;;;;;;;;16.29;100.00;99557.89;1700669;84;21277;-78
2022/07/23 04:28:25;;;;;;;;;;;;;;;16.39;100.00;99567.08;1700384;84;20453;-79
2022/07/23 04:31:00;;;;;;;;;;;;;;;16.49;100.00;99564.59;1679915;84;20078;-77
2022/07/23 04:33:27;;;;;;;;;;;;;;;16.60;100.00;99558.54;1701002;84;20118;-83
2022/07/23 04:35:58;;;;;;;;;;;;;;;16.71;100.00;99564.63;1680761;84;20122;-77
2022/07/23 04:38:30;;;;;;;;;;;;;;;16.85;100.00;99566.93;1702250;83;21560;-80
2022/07/23 04:41:02;;;;;;;;;;;;;;;16.99;100.00;99570.06;1691540;83;20149;-80
2022/07/23 04:43:33;;;;;;;;;;;;;;;17.13;100.00;99566.27;1717852;83;20090;-81
2022/07/23 04:46:02;;;;;;;;;;;;;;;17.29;100.00;99564.86;1717664;83;20579;-81
2022/07/23 04:48:32;;;;;;;;;;;;;;;17.43;100.00;99568.53;1718971;82;20149;-80
2022/07/23 04:51:03;;;;;;;;;;;;;;;17.57;98.86;99563.31;1623638;87;20143;-81
2022/07/23 04:53:40;;;;;;;;;;;;;;;17.71;98.26;99553.14;1665515;85;20134;-82
2022/07/23 04:56:07;;;;;;;;;;;;;;;17.87;97.06;99558.64;1645410;86;20090;-82
2022/07/23 04:58:38;;;;;;;;;;;;;;;18.05;96.17;99558.41;1665154;86;20449;-82
2022/07/23 05:01:05;;;;;;;;;;;;;;;18.20;94.84;99557.53;1663110;86;20209;-82
2022/07/23 05:03:37;;;;;;;;;;;;;;;18.36;94.62;99552.70;1665516;86;21800;-82
2022/07/23 05:06:06;;;;;;;;;;;;;;;18.54;93.93;99559.16;1664756;86;20105;-83
2022/07/23 05:08:37;;;;;;;;;;;;;;;18.69;93.24;99554.91;1665618;86;20081;-83
2022/07/23 05:11:04;;;;;;;;;;;;;;;18.88;91.51;99561.59;1665078;86;20122;-83
2022/07/23 05:13:38;;;;;;;;;;;;;;;19.06;91.09;99563.48;1665643;86;20098;-81
2022/07/23 05:16:09;;;;;;;;;;;;;;;19.24;89.03;99561.58;1665160;86;21304;-84
2022/07/23 05:18:42;;;;;;;;;;;;;;;19.41;87.62;99562.45;1643042;86;20454;-86
2022/07/23 05:21:09;;;;;;;;;;;;;;;19.56;87.23;99561.52;1651482;86;20174;-86
2022/07/23 05:23:36;;;;;;;;;;;;;;;19.73;86.72;99560.14;1641021;86;20096;-81
2022/07/23 05:26:09;;;;;;;;;;;;;;;19.90;86.49;99562.96;1637624;87;20173;-81
2022/07/23 05:28:39;;;;;;;;;;;;;;;20.07;84.69;99562.39;1619765;87;20091;-82
2022/07/23 05:31:14;;;;;;;;;;;;;;;20.21;83.69;99557.59;1618354;87;20100;-82
2022/07/23 05:33:44;;;;;;;;;;;;;;;20.39;83.10;99566.97;1637951;87;20104;-82
2022/07/23 05:36:15;;;;;;;;;;;;;;;20.54;82.27;99558.97;1638185;87;20401;-79
2022/07/23 05:38:55;;;;;;;;;;;;;;;20.68;81.51;99556.92;1636727;87;20092;-82
2022/07/23 05:41:29;;;;;;;;;;;;;;;20.83;80.00;99566.20;1621686;88;21728;-81
2022/07/23 05:43:53;;;;;;;;;;;;;;;20.96;78.85;99570.32;1620879;88;20097;-82
2022/07/23 05:46:22;;;;;;;;;;;;;;;21.09;77.90;99573.84;1601545;88;20460;-80
2022/07/23 05:48:50;;;;;;;;;;;;;;;21.19;77.01;99576.52;1621645;88;20097;-83
2022/07/23 05:51:22;;;;;;;;;;;;;;;21.32;78.29;99572.27;1589057;88;20104;-81
2022/07/23 05:54:07;;;;;;;;;;;;;;;21.46;76.53;99571.54;1621854;88;21501;-80
2022/07/23 05:56:27;;;;;;;;;;;;;;;21.59;75.92;99570.04;1616475;88;20120;-79
2022/07/23 05:59:02;;;;;;;;;;;;;;;21.77;75.17;99574.94;1621741;88;20125;-81
2022/07/23 06:01:33;;;;;;;;;;;;;;;21.90;75.15;99577.61;1601579;88;20129;-80
2022/07/23 06:04:00;;;;;;;;;;;;;;;22.01;74.25;99572.28;1620664;88;20176;-80
2022/07/23 06:06:31;;;;;;;;;;;;;;;22.12;73.37;99566.74;1621325;88;22252;-81
2022/07/23 06:09:00;;;;;;;;;;;;;;;22.20;71.00;99569.77;1601446;88;20102;-82
2022/07/23 06:11:29;;;;;;;;;;;;;;;22.25;71.07;99569.39;1620907;88;20097;-81
2022/07/23 06:13:59;;;;;;;;;;;;;;;22.30;69.06;99566.81;1621671;88;20433;-82
2022/07/23 06:16:29;;;;;;;;;;;;;;;22.32;70.54;99566.63;1604270;87;20157;-82
2022/07/23 06:18:58;;;;;;;;;;;;;;;22.43;69.35;99567.27;1645570;87;21124;-83
2022/07/23 06:21:31;;;;;;;;;;;;;;;22.49;67.52;99562.89;1619283;88;20448;-86
2022/07/23 06:24:01;;;;;;;;;;;;;;;22.56;68.34;99567.08;1621419;87;20109;-85
2022/07/23 06:26:36;;;;;;;;;;;;;;;22.65;69.36;99565.50;1621720;88;20440;-82
2022/07/23 06:29:09;;;;;;;;;;;;;;;22.78;68.84;99570.12;1601770;88;20461;-81
2022/07/23 06:31:38;;;;;;;;;;;;;;;22.94;67.32;99571.98;1621364;88;20104;-83
2022/07/23 06:34:06;;;;;;;;;;;;;;;23.02;65.64;99565.19;1620934;88;20452;-86
2022/07/23 06:36:36;;;;;;;;;;;;;;;23.09;66.45;99564.99;1622017;88;20097;-87
2022/07/23 06:39:03;;;;;;;;;;;;;;;23.20;64.96;99567.17;1620977;88;20490;-87
2022/07/23 06:41:40;;;;;;;;;;;;;;;23.29;63.99;99570.37;1601514;88;20137;-86
2022/07/23 06:44:07;;;;;;;;;;;;;;;23.35;63.15;99563.97;1600945;88;20093;-84
2022/07/23 06:46:37;;;;;;;;;;;;;;;23.45;63.63;99569.36;1635137;85;20115;-85
2022/07/23 06:49:07;;;;;;;;;;;;;;;23.60;62.80;99568.77;1660846;85;20120;-80
2022/07/23 06:51:33;;;;;;;;;;;;;;;23.68;61.53;99567.56;1670848;85;20104;-89
2022/07/23 06:54:05;;;;;;;;;;;;;;;23.75;61.85;99573.72;1659926;85;20147;-84
2022/07/23 06:56:34;;;;;;;;;;;;;;;23.85;60.25;99565.29;1663866;85;21133;-83
2022/07/23 06:59:05;;;;;;;;;;;;;;;23.85;60.61;99561.69;1662834;84;20130;-82
2022/07/23 07:01:31;;;;;;;;;;;;;;;23.93;62.56;99562.66;1642550;87;20140;-74
2022/07/23 07:03:59;;;;;;;;;;;;;;;24.08;61.70;99569.03;1651267;85;20108;-84
2022/07/23 07:06:34;;;;;;;;;;;;;;;24.21;60.59;99560.36;1636907;87;20160;-89
2022/07/23 07:08:58;;;;;;;;;;;;;;;24.31;59.95;99558.72;1621803;87;21264;-90
2022/07/23 07:11:26;;;;;;;;;;;;;;;24.44;60.40;99561.27;1640517;85;20147;-86
2022/07/23 07:13:55;;;;;;;;;;;;;;;24.52;58.54;99555.80;1646907;85;20118;-83
2022/07/23 07:16:24;;;;;;;;;;;;;;;24.61;59.01;99556.77;1648242;87;20619;-83
2022/07/23 07:18:59;;;;;;;;;;;;;;;24.72;59.14;99556.70;1627798;87;20159;-82
2022/07/23 07:21:25;;;;;;;;;;;;;;;24.85;58.87;99559.19;1644179;85;21155;-83
2022/07/23 07:23:54;;;;;;;;;;;;;;;24.95;56.58;99557.70;1650626;85;20133;-88
2022/07/23 07:26:41;;;;;;;;;;;;;;;25.07;55.13;99557.86;1641734;85;20090;-82
2022/07/23 07:29:11;;;;;;;;;;;;;;;25.07;56.14;99558.45;1613308;87;20379;-80
2022/07/23 07:31:42;;;;;;;;;;;;;;;25.11;54.81;99553.61;1647577;87;20134;-77
2022/07/23 07:34:13;;;;;;;;;;;;;;;25.17;56.25;99554.77;1627011;87;20106;-84
2022/07/23 07:36:49;;;;;;;;;;;;;;;25.31;55.71;99563.08;1647555;87;20167;-86
2022/07/23 07:39:18;;;;;;;;;;;;;;;25.46;55.48;99567.33;1645388;85;20142;-81
2022/07/23 07:41:48;;;;;;;;;;;;;;;25.58;53.45;99573.04;1638170;87;20125;-77
2022/07/23 07:44:16;;;;;;;;;;;;;;;25.52;52.77;99576.11;1620799;88;20100;-80
2022/07/23 07:46:53;;;;;;;;;;;;;;;25.30;53.46;99566.49;1635429;87;21160;-79
2022/07/23 07:49:23;;;;;;;;;;;;;;;25.13;53.84;99561.02;1647600;87;20095;-80
2022/07/23 07:51:51;;;;;;;;;;;;;;;25.10;55.06;99560.44;1609080;88;20112;-77
2022/07/23 07:54:19;;;;;;;;;;;;;;;25.22;54.04;99562.75;1599957;88;20192;-83
2022/07/23 07:56:49;;;;;;;;;;;;;;;25.33;53.37;99571.28;1620356;88;20161;-80
2022/07/23 07:59:18;;;;;;;;;;;;;;;25.48;52.73;99566.30;1620634;88;21249;-88
2022/07/23 08:01:47;;;;;;;;;;;;;;;25.51;51.83;99564.07;1621208;88;20096;-83
2022/07/23 08:04:18;;;;;;;;;;;;;;;25.56;52.54;99562.82;1621293;88;20164;-83
2022/07/23 08:06:56;;;;;;;;;;;;;;;25.74;53.96;99562.06;1658446;85;20265;-76
2022/07/23 08:09:24;;;;;;;;;;;;;;;26.00;54.23;99559.14;1646228;84;20158;-80
2022/07/23 08:11:51;;;;;;;;;;;;;;;26.25;54.04;99565.27;1647724;87;21227;-78
2022/07/23 08:14:23;;;;;;;;;;;;;;;26.45;51.17;99566.06;1647872;87;20151;-79
2022/07/23 08:16:52;;;;;;;;;;;;;;;26.63;51.31;99560.95;1616741;87;20484;-79
2022/07/23 08:19:25;;;;;;;;;;;;;;;26.93;50.71;99560.91;1680505;85;20510;-77
2022/07/23 08:21:51;;;;;;;;;;;;;;;27.33;49.13;99556.05;1683157;84;20127;-78
2022/07/23 08:24:22;;;;;;;;;;;;;;;27.71;46.46;99559.43;1683962;85;21125;-82
2022/07/23 08:26:47;;;;;;;;;;;;;;;28.00;46.08;99556.22;1662326;85;20151;-75
2022/07/23 08:29:24;;;;;;;;;;;;;;;28.20;44.80;99556.22;1683711;84;20148;-87
2022/07/23 08:31:56;;;;;;;;;;;;;;;28.37;45.24;99562.10;1682836;85;20127;-77
2022/07/23 08:34:22;;;;;;;;;;;;;;;28.60;44.73;99561.20;1683501;85;20139;-91
2022/07/23 08:36:57;;;;;;;;;;;;;;;28.93;43.96;99552.97;1663615;85;20715;-86
2022/07/23 08:39:25;;;;;;;;;;;;;;;29.21;43.50;99551.48;1683550;85;20115;-88
2022/07/23 08:41:51;;;;;;;;;;;;;;;29.44;41.87;99544.08;1683648;84;20147;-87
2022/07/23 08:44:17;;;;;;;;;;;;;;;29.64;40.78;99542.52;1683899;85;20502;-79
2022/07/23 08:46:44;;;;;;;;;;;;;;;29.65;41.04;99541.27;1683858;85;20123;-82
2022/07/23 08:49:10;;;;;;;;;;;;;;;29.77;40.98;99537.09;1683899;85;21784;-86
2022/07/23 08:51:37;;;;;;;;;;;;;;;29.98;39.59;99537.11;1683786;85;20305;-89
2022/07/23 08:54:05;;;;;;;;;;;;;;;30.07;39.66;99540.70;1683752;85;20172;-81
2022/07/23 08:56:32;;;;;;;;;;;;;;;30.21;39.57;99539.67;1683749;85;20581;-76
2022/07/23 08:58:58;;;;;;;;;;;;;;;30.39;40.21;99545.43;1684213;85;20166;-82
2022/07/23 09:01:27;;;;;;;;;;;;;;;30.58;39.62;99552.17;1684023;85;20960;-86
2022/07/23 09:03:53;;;;;;;;;;;;;;;30.59;38.18;99546.06;1683785;85;20127;-88
2022/07/23 09:06:20;;;;;;;;;;;;;;;30.50;38.11;99542.45;1687794;85;20143;-77
2022/07/23 09:08:48;;;;;;;;;;;;;;;30.36;37.43;99538.63;1683638;85;20502;-81
2022/07/23 09:11:17;;;;;;;;;;;;;;;30.35;37.99;99540.49;1683845;85;20115;-77
2022/07/23 09:13:48;;;;;;;;;;;;;;;30.46;37.44;99538.14;1684025;85;21494;-85
2022/07/23 09:16:20;;;;;;;;;;;;;;;30.45;35.84;99536.55;1683724;85;20332;-83
2022/07/23 09:18:56;;;;;;;;;;;;;;;30.44;38.57;99527.87;1683988;85;20494;-79
2022/07/23 09:21:28;;;;;;;;;;;;;;;30.67;39.19;99533.23;1683605;85;20173;-79
2022/07/23 09:24:05;;;;;;;;;;;;;;;30.96;37.07;99526.66;1683748;85;20150;-80
2022/07/23 09:26:52;;;;;;;;;;;;;;;31.08;37.63;99526.64;1681342;84;21252;-81
2022/07/23 09:29:22;;;;;;;;;;;;;;;31.23;37.11;99527.58;1683693;85;20155;-80
2022/07/23 09:32:07;;;;;;;;;;;;;;;31.39;36.64;99526.02;1683593;85;20115;-82
2022/07/23 09:34:40;;;;;;;;;;;;;;;31.57;37.28;99531.86;1683883;85;20168;-81
2022/07/23 09:37:19;;;;;;;;;;;;;;;31.79;35.30;99524.17;1683650;85;20143;-78
2022/07/23 09:39:46;;;;;;;;;;;;;;;31.78;35.36;99520.37;1683955;85;21075;-87
2022/07/23 09:42:24;;;;;;;;;;;;;;;31.69;35.54;99527.42;1683570;84;20111;-86
2022/07/23 09:44:56;;;;;;;;;;;;;;;31.61;35.90;99536.00;1683680;85;20123;-80
2022/07/23 09:47:23;;;;;;;;;;;;;;;31.63;35.06;99526.39;1683615;85;20151;-79
2022/07/23 09:50:00;;;;;;;;;;;;;;;31.61;34.60;99524.64;1683750;85;20119;-82
2022/07/23 09:52:34;;;;;;;;;;;;;;;31.55;34.56;99529.32;1683615;85;21215;-75
2022/07/23 09:55:03;;;;;;;;;;;;;;;31.67;34.55;99521.39;1683720;85;20143;-79
2022/07/23 09:57:31;;;;;;;;;;;;;;;31.82;34.52;99514.73;1683639;85;20131;-84
2022/07/23 09:59:59;;;;;;;;;;;;;;;31.95;34.69;99506.79;1683914;85;20380;-77
2022/07/23 10:02:28;;;;;;;;;;;;;;;32.21;35.47;99508.86;1683659;84;20143;-82
2022/07/23 10:05:13;;;;;;;;;;;;;;;32.32;34.39;99507.22;1683757;85;21155;-85
2022/07/23 10:07:58;;;;;;;;;;;;;;;32.52;34.85;99503.98;1683881;85;20127;-76
2022/07/23 10:10:42;;;;;;;;;;;;;;;32.78;34.03;99511.70;1683701;85;20148;-78
2022/07/23 10:16:02;;;;;;;;;;;;;;;32.86;33.72;99506.52;1683636;85;20465;-79
2022/07/23 10:18:30;;;;;;;;;;;;;;;32.72;32.04;99495.07;1683729;85;20140;-81
2022/07/23 10:20:59;;;;;;;;;;;;;;;32.20;31.27;99494.49;1683662;85;20150;-83
2022/07/23 10:23:32;;;;;;;;;;;;;;;31.83;33.49;99496.45;1683642;85;20155;-87
2022/07/23 10:26:24;;;;;;;;;;;;;;;31.82;32.32;99483.52;1681909;85;20209;-87
2022/07/23 10:29:04;;;;;;;;;;;;;;;31.94;34.22;99484.70;1683730;85;20115;-75
2022/07/23 10:31:41;;;;;;;;;;;;;;;32.30;32.83;99489.85;1683687;85;21565;-76
2022/07/23 10:34:28;;;;;;;;;;;;;;;32.25;31.96;99491.08;1658043;84;20159;-77
2022/07/23 10:37:25;;;;;;;;;;;;;;;32.08;31.67;99493.31;1683974;85;20115;-72
2022/07/23 10:40:12;;;;;;;;;;;;;;;32.00;33.15;99493.42;1651724;85;20119;-76
2022/07/23 10:42:40;;;;;;;;;;;;;;;32.11;32.54;99500.28;1683010;84;20183;-74
2022/07/23 10:45:27;;;;;;;;;;;;;;;32.32;32.68;99493.65;1683763;85;21104;-74
2022/07/23 10:47:54;;;;;;;;;;;;;;;32.57;31.39;99499.11;1683604;85;20127;-75
2022/07/23 10:50:23;;;;;;;;;;;;;;;32.78;29.10;99481.23;1683625;84;20111;-76
2022/07/23 10:53:15;;;;;;;;;;;;;;;32.74;31.68;99488.28;1683805;85;20139;-76
2022/07/23 10:55:44;;;;;;;;;;;;;;;32.74;30.59;99493.97;1683625;85;20127;-70
2022/07/23 10:58:10;;;;;;;;;;;;;;;32.33;30.04;99488.92;1683603;85;21171;-72
2022/07/23 11:00:38;;;;;;;;;;;;;;;31.95;31.60;99486.92;1683655;85;20135;-72
2022/07/23 11:03:36;;;;;;;;;;;;;;;31.94;33.66;99488.96;1674705;85;20089;-73
2022/07/23 11:06:02;;;;;;;;;;;;;;;32.17;33.00;99485.64;1669134;85;20157;-75
2022/07/23 11:08:30;;;;;;;;;;;;;;;32.40;33.39;99485.77;1654710;86;20127;-71
2022/07/23 11:11:03;;;;;;;;;;;;;;;32.68;33.23;99483.84;1639351;86;20740;-75
2022/07/23 11:13:32;;;;;;;;;;;;;;;32.98;29.77;99470.83;1673723;85;20104;-73
2022/07/23 11:16:05;;;;;;;;;;;;;;;32.85;29.21;99467.35;1679065;84;20140;-73
2022/07/23 11:18:51;;;;;;;;;;;;;;;32.60;29.72;99468.34;1650223;85;20090;-72
2022/07/23 11:21:28;;;;;;;;;;;;;;;32.51;30.66;99465.46;1648583;87;20154;-73
2022/07/23 11:24:06;;;;;;;;;;;;;;;32.67;30.65;99463.00;1647300;87;21262;-73
2022/07/23 11:26:39;;;;;;;;;;;;;;;32.73;30.18;99463.97;1647428;87;20090;-72
2022/07/23 11:29:37;;;;;;;;;;;;;;;32.67;31.31;99460.95;1648240;87;20442;-72
2022/07/23 11:32:19;;;;;;;;;;;;;;;32.71;31.90;99465.06;1648265;87;20441;-73
2022/07/23 11:34:47;;;;;;;;;;;;;;;33.00;30.85;99456.14;1648611;85;20138;-75
2022/07/23 11:37:34;;;;;;;;;;;;;;;32.95;30.61;99459.61;1654576;85;21558;-83
2022/07/23 11:40:03;;;;;;;;;;;;;;;32.95;30.20;99459.61;1647642;87;20102;-78
2022/07/23 11:42:30;;;;;;;;;;;;;;;32.99;31.78;99458.83;1675230;85;20128;-77
2022/07/23 11:44:56;;;;;;;;;;;;;;;33.27;32.41;99459.03;1677498;84;20280;-74
2022/07/23 11:47:24;;;;;;;;;;;;;;;33.48;30.76;99460.18;1676575;84;20961;-73
2022/07/23 11:49:58;;;;;;;;;;;;;;;33.64;29.63;99462.67;1677716;84;21971;-72
2022/07/23 11:52:25;;;;;;;;;;;;;;;33.74;28.94;99457.77;1678380;85;20104;-73
2022/07/23 11:55:05;;;;;;;;;;;;;;;33.88;29.79;99460.63;1678632;85;20088;-75
2022/07/23 11:57:35;;;;;;;;;;;;;;;34.24;29.14;99462.58;1678279;85;20203;-72
2022/07/23 12:00:09;;;;;;;;;;;;;;;34.46;28.57;99466.66;1678624;85;20076;-74
2022/07/23 12:02:39;;;;;;;;;;;;;;;34.66;28.58;99464.79;1678414;84;21237;-75
2022/07/23 12:05:07;;;;;;;;;;;;;;;34.66;27.77;99461.94;1678299;85;20120;-74
2022/07/23 12:07:36;;;;;;;;;;;;;;;34.54;28.97;99469.31;1677932;84;20096;-70
2022/07/23 12:10:15;;;;;;;;;;;;;;;34.49;27.42;99466.48;1678379;85;20452;-70
2022/07/23 12:12:47;;;;;;;;;;;;;;;34.25;27.71;99465.58;1675754;85;20088;-70
2022/07/23 12:15:15;;;;;;;;;;;;;;;34.01;28.16;99460.61;1678363;85;21237;-69
2022/07/23 12:17:45;;;;;;;;;;;;;;;33.92;27.84;99456.35;1678378;84;20088;-70
2022/07/23 12:20:14;;;;;;;;;;;;;;;34.07;28.16;99457.27;1678633;84;20088;-70
2022/07/23 12:22:44;;;;;;;;;;;;;;;34.21;27.73;99453.56;1669661;85;20189;-70
2022/07/23 12:25:14;;;;;;;;;;;;;;;34.07;27.57;99451.58;1648313;87;20110;-69
2022/07/23 12:27:42;;;;;;;;;;;;;;;33.81;27.19;99442.45;1629489;87;21156;-70
2022/07/23 12:30:23;;;;;;;;;;;;;;;33.43;28.53;99441.69;1621717;88;20121;-69
2022/07/23 12:32:51;;;;;;;;;;;;;;;33.45;28.24;99449.11;1634009;87;20095;-70
2022/07/23 12:35:18;;;;;;;;;;;;;;;33.43;28.35;99445.16;1648444;87;20126;-69
2022/07/23 12:37:46;;;;;;;;;;;;;;;33.32;28.80;99437.73;1643097;87;20181;-70
2022/07/23 12:40:30;;;;;;;;;;;;;;;32.91;28.64;99441.94;1621905;88;21244;-69
2022/07/23 12:43:09;;;;;;;;;;;;;;;32.52;30.03;99435.79;1646842;85;20102;-70
2022/07/23 12:45:45;;;;;;;;;;;;;;;32.14;31.76;99435.46;1653804;86;20078;-69
2022/07/23 12:48:18;;;;;;;;;;;;;;;31.73;31.64;99435.86;1653624;87;20126;-69
2022/07/23 12:50:49;;;;;;;;;;;;;;;31.26;30.94;99438.77;1632810;87;20441;-69
2022/07/23 12:53:24;;;;;;;;;;;;;;;30.88;33.60;99441.06;1627423;88;21768;-69
2022/07/23 12:56:03;;;;;;;;;;;;;;;30.63;33.46;99436.85;1604889;87;20128;-70
2022/07/23 12:58:54;;;;;;;;;;;;;;;30.45;33.26;99432.55;1646516;86;20148;-70
2022/07/23 13:01:24;;;;;;;;;;;;;;;30.45;34.34;99432.55;1643436;86;20146;-70
2022/07/23 13:04:13;;;;;;;;;;;;;;;30.90;33.48;99426.44;1650742;87;20102;-70
2022/07/23 13:06:43;;;;;;;;;;;;;;;31.63;32.27;99422.20;1646729;86;21157;-71